createdAt,value
2023-05-13T00:02:09.310Z,8.07
2023-05-13T00:04:36.378Z,7.25
2023-05-13T00:07:03.259Z,7.63
2023-05-13T00:09:37.429Z,8.07
2023-05-13T00:17:21.793Z,7.38
2023-05-13T00:19:50.580Z,7.32
2023-05-13T00:25:21.862Z,6.47
2023-05-13T00:27:48.909Z,6.88
2023-05-13T00:30:15.734Z,6.72
2023-05-13T00:38:06.987Z,6.70
2023-05-13T00:40:45.274Z,6.75
2023-05-13T00:43:21.928Z,6.78
2023-05-13T00:45:51.220Z,7.30
2023-05-13T00:48:17.879Z,6.90
2023-05-13T00:50:45.908Z,6.65
2023-05-13T00:53:15.312Z,6.57
2023-05-13T00:55:47.049Z,6.75
2023-05-13T00:58:16.211Z,6.68
2023-05-13T01:01:08.540Z,6.43
2023-05-13T01:04:32.394Z,6.18
2023-05-13T01:07:48.680Z,6.22
2023-05-13T01:14:14.798Z,6.13
2023-05-13T01:22:34.004Z,6.47
2023-05-13T01:27:52.273Z,6.70
2023-05-13T01:30:30.554Z,6.85
2023-05-13T01:33:13.304Z,6.47
2023-05-13T01:35:42.239Z,6.50
2023-05-13T01:38:14.123Z,6.30
2023-05-13T01:40:42.937Z,6.20
2023-05-13T01:45:47.373Z,7.03
2023-05-13T01:48:26.065Z,6.90
2023-05-13T01:50:53.645Z,6.82
2023-05-13T01:53:24.277Z,6.50
2023-05-13T01:56:05.872Z,6.78
2023-05-13T01:58:41.016Z,6.78
2023-05-13T02:01:14.697Z,6.60
2023-05-13T02:03:43.787Z,6.57
2023-05-13T02:06:14.116Z,6.43
2023-05-13T02:08:41.351Z,6.18
2023-05-13T02:11:13.997Z,6.45
2023-05-13T02:13:48.088Z,6.53
2023-05-13T02:16:16.937Z,6.68
2023-05-13T02:18:45.410Z,5.95
2023-05-13T02:21:13.943Z,6.28
2023-05-13T02:24:01.805Z,6.13
2023-05-13T02:26:33.443Z,6.68
2023-05-13T02:29:16.729Z,6.72
2023-05-13T02:31:44.035Z,6.20
2023-05-13T02:34:13.910Z,6.65
2023-05-13T02:36:41.584Z,6.68
2023-05-13T02:39:08.610Z,5.93
2023-05-13T02:41:38.592Z,5.97
2023-05-13T02:44:06.295Z,5.90
2023-05-13T02:46:34.547Z,5.72
2023-05-13T02:49:01.201Z,6.07
2023-05-13T02:51:28.319Z,5.60
2023-05-13T02:53:55.463Z,5.80
2023-05-13T02:56:33.625Z,5.60
2023-05-13T02:59:00.470Z,5.63
2023-05-13T03:01:30.982Z,5.10
2023-05-13T03:06:36.955Z,5.88
2023-05-13T03:09:27.694Z,5.60
2023-05-13T03:12:02.002Z,5.60
2023-05-13T03:17:13.837Z,6.10
2023-05-13T03:19:46.468Z,6.65
2023-05-13T03:22:14.089Z,6.53
2023-05-13T03:24:59.433Z,6.78
2023-05-13T03:27:40.028Z,6.80
2023-05-13T03:32:36.689Z,6.47
2023-05-13T03:35:04.016Z,6.22
2023-05-13T03:37:33.859Z,6.22
2023-05-13T03:40:00.795Z,6.07
2023-05-13T03:42:38.572Z,6.43
2023-05-13T03:45:10.092Z,6.70
2023-05-13T03:47:43.094Z,6.55
2023-05-13T03:50:14.701Z,6.75
2023-05-13T03:52:46.271Z,6.35
2023-05-13T03:55:16.320Z,7.05
2023-05-13T03:57:55.947Z,7.70
2023-05-13T04:00:29.628Z,8.65
2023-05-13T04:03:03.881Z,7.85
2023-05-13T04:05:35.789Z,7.35
2023-05-13T04:08:06.396Z,8.50
2023-05-13T04:10:39.281Z,8.57
2023-05-13T04:13:09.759Z,7.72
2023-05-13T04:15:37.476Z,8.70
2023-05-13T04:18:04.436Z,8.63
2023-05-13T04:20:33.581Z,8.73
2023-05-13T04:23:01.892Z,8.75
2023-05-13T04:25:31.747Z,9.45
2023-05-13T04:27:58.395Z,9.20
2023-05-13T04:30:29.974Z,8.50
2023-05-13T04:33:00.860Z,8.45
2023-05-13T04:35:30.215Z,8.60
2023-05-13T04:37:59.412Z,8.80
2023-05-13T04:40:28.733Z,9.10
2023-05-13T04:45:40.618Z,8.82
2023-05-13T04:48:12.739Z,8.70
2023-05-13T04:50:52.402Z,8.60
2023-05-13T04:53:26.764Z,8.57
2023-05-13T04:56:24.806Z,8.95
2023-05-13T04:59:02.169Z,8.18
2023-05-13T05:01:34.440Z,8.13
2023-05-13T05:14:22.717Z,7.93
2023-05-13T05:16:49.666Z,7.20
2023-05-13T05:22:05.346Z,7.40
2023-05-13T05:24:32.797Z,7.00
2023-05-13T05:27:05.176Z,7.30
2023-05-13T05:32:13.626Z,7.25
2023-05-13T05:34:49.630Z,6.50
2023-05-13T05:40:07.740Z,7.03
2023-05-13T05:45:55.639Z,6.55
2023-05-13T05:48:31.152Z,6.40
2023-05-13T05:51:11.377Z,6.45
2023-05-13T05:56:36.280Z,6.38
2023-05-13T06:01:49.753Z,5.50
2023-05-13T06:04:30.633Z,6.13
2023-05-13T06:20:09.907Z,5.13
2023-05-13T06:22:38.575Z,4.95
2023-05-13T06:25:16.405Z,4.53
2023-05-13T06:27:42.970Z,4.57
2023-05-13T06:36:09.940Z,4.63
2023-05-13T06:38:52.842Z,4.70
2023-05-13T06:41:27.174Z,4.50
2023-05-13T06:47:16.803Z,4.72
2023-05-13T06:55:51.564Z,3.80
2023-05-13T07:01:42.691Z,4.28
2023-05-13T07:13:20.959Z,3.47
2023-05-13T07:15:58.607Z,3.83
2023-05-13T07:18:26.294Z,3.65
2023-05-13T07:24:07.111Z,3.28
2023-05-13T07:29:33.555Z,3.55
2023-05-13T07:39:07.143Z,3.03
2023-05-13T08:04:33.312Z,3.45
2023-05-13T08:07:09.801Z,3.30
2023-05-13T08:27:40.682Z,3.08
2023-05-13T08:30:14.222Z,3.03
2023-05-13T08:35:59.860Z,3.20
2023-05-13T08:54:12.599Z,2.90
2023-05-13T09:31:04.131Z,2.92
2023-05-13T09:33:36.596Z,2.70
2023-05-13T09:41:39.369Z,2.70
2023-05-13T09:44:28.602Z,2.78
2023-05-13T09:52:37.578Z,3.10
2023-05-13T09:55:09.667Z,2.80
2023-05-13T09:57:40.735Z,2.80
2023-05-13T10:00:28.726Z,2.50
2023-05-13T10:02:58.538Z,2.55
2023-05-13T10:05:45.982Z,3.10
2023-05-13T10:08:14.692Z,2.70
2023-05-13T10:10:48.312Z,2.83
2023-05-13T10:13:19.238Z,2.78
2023-05-13T10:21:30.483Z,3.00
2023-05-13T10:24:07.007Z,3.10
2023-05-13T10:26:43.743Z,3.08
2023-05-13T10:32:06.543Z,3.10
2023-05-13T10:47:03.381Z,2.90
2023-05-13T10:52:50.796Z,3.00
2023-05-13T10:58:49.365Z,3.03
2023-05-13T11:14:48.157Z,3.22
2023-05-13T11:17:21.009Z,2.58
2023-05-13T11:22:35.840Z,3.10
2023-05-13T11:27:53.774Z,3.08
2023-05-13T11:31:11.222Z,2.80
2023-05-13T11:48:22.216Z,2.92
2023-05-13T11:56:17.804Z,3.15
2023-05-13T11:58:53.559Z,2.60
2023-05-13T12:01:30.475Z,2.63
2023-05-13T12:04:13.616Z,2.58
2023-05-13T12:15:02.209Z,2.30
2023-05-13T12:20:27.532Z,2.60
2023-05-13T12:28:35.412Z,2.58
2023-05-13T12:31:28.652Z,2.60
2023-05-13T12:33:55.572Z,2.40
2023-05-13T12:36:37.335Z,2.33
2023-05-13T12:44:38.520Z,1.77
2023-05-13T12:47:22.888Z,1.80
2023-05-13T13:03:31.030Z,2.10
2023-05-13T13:11:37.731Z,1.80
2023-05-13T13:14:16.032Z,2.03
2023-05-13T13:16:46.454Z,1.80
2023-05-13T13:41:29.441Z,2.00
2023-05-13T13:44:08.972Z,2.20
2023-05-13T13:57:55.470Z,2.05
2023-05-13T14:12:16.801Z,2.25
2023-05-13T14:19:56.632Z,2.22
2023-05-13T14:22:35.398Z,2.20
2023-05-13T14:25:13.898Z,1.90
2023-05-13T14:27:44.161Z,2.28
2023-05-13T14:30:17.394Z,2.00
2023-05-13T14:32:51.069Z,2.13
2023-05-13T14:35:20.929Z,2.00
2023-05-13T14:37:56.916Z,2.10
2023-05-13T14:43:07.232Z,2.30
2023-05-13T14:45:35.764Z,2.10
2023-05-13T14:48:02.485Z,2.70
2023-05-13T14:50:50.416Z,2.63
2023-05-13T14:53:41.386Z,2.50
2023-05-13T15:02:01.861Z,2.70
2023-05-13T15:07:18.409Z,2.50
2023-05-13T15:09:47.535Z,2.40
2023-05-13T15:12:16.189Z,2.50
2023-05-13T15:14:43.439Z,2.65
2023-05-13T15:17:21.379Z,2.63
2023-05-13T15:19:54.792Z,2.72
2023-05-13T15:22:28.393Z,2.60
2023-05-13T15:24:58.582Z,2.80
2023-05-13T15:33:02.135Z,3.10
2023-05-13T15:35:32.725Z,3.13
2023-05-13T15:46:42.933Z,2.70
2023-05-13T15:54:45.564Z,2.72
2023-05-13T15:57:13.386Z,2.88
2023-05-13T15:59:49.262Z,2.83
2023-05-13T16:05:37.220Z,3.15
2023-05-13T16:08:03.840Z,3.38
2023-05-13T16:13:26.738Z,2.88
2023-05-13T16:16:07.501Z,3.28
2023-05-13T16:21:23.289Z,2.78
2023-05-13T16:26:32.802Z,3.10
2023-05-13T16:31:43.375Z,3.28
2023-05-13T16:34:11.064Z,3.22
2023-05-13T16:36:38.634Z,2.90
2023-05-13T16:39:12.497Z,3.25
2023-05-13T16:41:51.788Z,3.13
2023-05-13T16:52:34.504Z,2.88
2023-05-13T17:00:23.708Z,3.10
2023-05-13T17:02:51.034Z,3.17
2023-05-13T17:05:20.465Z,2.90
2023-05-13T17:07:49.901Z,3.03
2023-05-13T17:10:19.057Z,3.10
2023-05-13T17:18:16.969Z,3.42
2023-05-13T17:23:44.154Z,3.20
2023-05-13T17:26:15.476Z,3.42
2023-05-13T17:48:39.294Z,3.40
2023-05-13T18:14:21.663Z,3.20
2023-05-13T18:16:49.037Z,2.80
2023-05-13T18:19:17.459Z,2.67
2023-05-13T18:21:46.506Z,2.85
2023-05-13T18:24:16.860Z,2.72
2023-05-13T18:26:47.793Z,2.80
2023-05-13T18:34:36.992Z,2.85
2023-05-13T18:37:10.274Z,2.70
2023-05-13T18:39:47.011Z,3.05
2023-05-13T18:50:27.435Z,4.13
2023-05-13T18:52:57.171Z,3.85
2023-05-13T18:55:39.103Z,3.58
2023-05-13T19:01:05.218Z,4.13
2023-05-13T19:06:43.784Z,3.92
2023-05-13T19:14:42.323Z,4.00
2023-05-13T19:19:51.268Z,4.10
2023-05-13T19:25:12.775Z,3.90
2023-05-13T19:27:41.193Z,4.28
2023-05-13T19:32:53.614Z,5.35
2023-05-13T19:37:47.906Z,3.90
2023-05-13T19:40:14.974Z,4.40
2023-05-13T19:45:36.971Z,4.55
2023-05-13T19:48:38.141Z,4.35
2023-05-13T19:51:06.496Z,4.38
2023-05-13T19:54:00.412Z,4.28
2023-05-13T19:59:14.522Z,4.03
2023-05-13T20:09:47.798Z,4.03
2023-05-13T20:12:14.631Z,3.80
2023-05-13T20:14:58.895Z,4.10
2023-05-13T20:17:25.914Z,4.13
2023-05-13T20:19:59.952Z,4.50
2023-05-13T20:22:30.238Z,6.75
2023-05-13T20:24:57.421Z,4.90
2023-05-13T20:27:27.023Z,5.25
2023-05-13T20:29:55.943Z,5.28
2023-05-13T20:32:25.432Z,4.90
2023-05-13T20:35:13.190Z,5.20
2023-05-13T20:37:45.319Z,5.13
2023-05-13T20:40:22.084Z,4.97
2023-05-13T20:42:57.456Z,4.97
2023-05-13T20:45:25.230Z,5.85
2023-05-13T20:47:54.908Z,5.50
2023-05-13T20:50:29.235Z,5.85
2023-05-13T20:53:00.702Z,5.00
2023-05-13T20:55:34.050Z,5.30
2023-05-13T20:58:03.371Z,6.22
2023-05-13T21:00:31.601Z,5.88
2023-05-13T21:03:03.551Z,5.88
2023-05-13T21:05:38.734Z,5.72
2023-05-13T21:14:08.934Z,6.18
2023-05-13T21:16:36.408Z,6.60
2023-05-13T21:19:07.924Z,7.10
2023-05-13T21:21:36.079Z,6.82
2023-05-13T21:24:03.125Z,7.65
2023-05-13T21:26:31.186Z,7.22
2023-05-13T21:29:00.218Z,7.13
2023-05-13T21:31:29.093Z,7.65
2023-05-13T21:33:58.646Z,8.18
2023-05-13T21:36:32.952Z,7.35
2023-05-13T21:39:02.429Z,7.90
2023-05-13T21:41:30.704Z,7.70
2023-05-13T21:43:58.019Z,7.95
2023-05-13T21:46:27.385Z,7.95
2023-05-13T21:48:54.139Z,8.43
2023-05-13T21:51:21.088Z,8.63
2023-05-13T21:53:49.167Z,9.90
2023-05-13T22:01:26.727Z,11.05
2023-05-13T22:03:57.725Z,10.23
2023-05-13T22:09:05.545Z,9.82
2023-05-13T22:11:33.789Z,9.85
2023-05-13T22:14:01.144Z,10.20
2023-05-13T22:16:28.241Z,9.60
2023-05-13T22:18:58.854Z,9.30
2023-05-13T22:21:31.296Z,8.88
2023-05-13T22:23:59.942Z,8.48
2023-05-13T22:26:47.771Z,8.13
2023-05-13T22:29:15.113Z,7.13
2023-05-13T22:31:44.391Z,7.00
2023-05-13T22:34:19.847Z,7.00
2023-05-13T22:36:46.897Z,7.03
2023-05-13T22:39:18.880Z,6.85
2023-05-13T22:41:45.453Z,6.97
2023-05-13T22:44:21.940Z,6.78
2023-05-13T22:46:49.790Z,6.57
2023-05-13T22:49:25.498Z,6.70
2023-05-13T22:51:52.832Z,6.43
2023-05-13T22:56:49.906Z,6.07
2023-05-13T22:59:17.495Z,6.43
2023-05-13T23:01:48.184Z,6.72
2023-05-13T23:04:14.873Z,6.72
2023-05-13T23:06:41.547Z,6.72
2023-05-13T23:09:09.806Z,6.55
2023-05-13T23:11:37.372Z,6.80
2023-05-13T23:14:06.327Z,6.65
2023-05-13T23:16:34.925Z,6.80
2023-05-13T23:19:04.631Z,7.05
2023-05-13T23:21:37.485Z,6.60
2023-05-13T23:24:05.134Z,6.43
2023-05-13T23:26:33.226Z,6.80
2023-05-13T23:29:00.016Z,6.75
2023-05-13T23:31:28.553Z,6.40
2023-05-13T23:33:55.394Z,6.97
2023-05-13T23:36:22.402Z,6.90
2023-05-13T23:39:03.880Z,6.22
2023-05-13T23:41:38.922Z,6.60
2023-05-13T23:44:13.971Z,7.50
2023-05-13T23:46:41.229Z,7.50
2023-05-13T23:49:07.983Z,6.70
2023-05-13T23:51:35.581Z,6.85
2023-05-13T23:54:03.920Z,7.30
2023-05-13T23:56:31.169Z,6.88
2023-05-13T23:59:09.203Z,7.78
